CDT,Max TemperatureF,Mean TemperatureF,Min TemperatureF,Max Dew PointF,MeanDew PointF,Min DewpointF,Max Humidity, Mean Humidity, Min Humidity, Max Sea Level PressureIn, Mean Sea Level PressureIn, Min Sea Level PressureIn, Max VisibilityMiles, Mean VisibilityMiles, Min VisibilityMiles, Max Wind SpeedMPH, Mean Wind SpeedMPH, Max Gust SpeedMPH,PrecipitationIn, CloudCover, Events, WindDirDegrees
2013-10-1,66,58,50,52,38,27,88,49,24,29.85,29.65,29.48,10,10,10,21,8,36,0.00,0,,251
2013-10-2,62,52,41,46,38,32,93,62,37,30.01,29.96,29.85,10,10,10,9,2,,0.00,2,Rain,263
2013-10-3,62,50,37,48,42,36,94,76,45,30.06,29.99,29.96,10,10,2,6,0,,0.00,2,,77
2013-10-4,57,50,42,45,42,39,93,73,55,30.17,30.13,30.06,10,10,10,7,1,,0.00,5,,57
2013-10-5,51,46,42,43,40,37,93,85,62,30.10,29.96,29.82,10,8,2,8,4,,0.17,8,Rain,75
2013-10-6,51,45,39,45,40,36,93,88,71,29.83,29.75,29.73,10,9,2,10,1,,0.34,6,Rain,320
2013-10-7,59,49,39,43,37,34,93,73,41,29.90,29.84,29.73,10,10,10,13,4,18,0.00,0,,305
2013-10-8,75,58,41,45,39,34,81,54,25,29.90,29.76,29.64,10,10,10,20,7,28,0.00,0,,157
2013-10-9,73,60,48,50,45,43,82,63,38,30.00,29.92,29.78,10,10,10,7,3,,0.00,0,,176
2013-10-10,73,62,51,48,45,43,82,60,36,30.01,29.93,29.87,10,10,10,15,5,21,0.00,0,Rain,137
2013-10-11,73,63,53,54,47,43,82,63,38,29.90,29.76,29.54,10,10,10,18,8,32,0.01,2,Rain-Thunderstorm,131
2013-10-12,60,52,44,54,45,39,94,81,71,30.03,29.72,29.53,10,10,4,16,10,23,0.10,7,Rain,207
2013-10-13,55,42,30,39,31,25,93,67,35,30.37,30.26,30.04,10,10,10,14,6,18,0.00,2,,271
2013-10-14,48,37,26,41,34,25,93,81,58,30.39,30.31,30.16,10,10,4,6,0,,0.33,6,Rain,97
2013-10-15,42,42,41,39,39,37,93,90,81,30.16,29.96,29.88,10,9,5,6,2,,0.29,8,Rain,38
2013-10-16,53,42,30,37,33,27,100,72,35,29.90,29.84,29.77,10,10,4,7,1,,0.00,2,,231
2013-10-17,46,42,39,41,37,34,87,83,76,29.83,29.78,29.74,10,10,5,6,1,,0.04,8,Rain,321
2013-10-18,46,37,28,34,29,27,100,77,50,29.87,29.81,29.72,10,10,10,9,2,10,0.00,5,,257
2013-10-19,42,35,28,34,30,27,93,84,53,29.71,29.67,29.64,10,9,4,10,1,,0.03,6,Rain-Snow,292
2013-10-20,35,30,26,34,29,25,100,90,80,29.75,29.70,29.67,10,8,2,16,1,22,0.03,7,Rain-Snow,298
2013-10-21,35,30,24,32,26,21,93,84,75,29.85,29.76,29.71,10,9,2,14,9,21,0.01,8,Snow,290
2013-10-22,37,32,28,28,25,21,93,75,52,29.97,29.93,29.85,10,10,7,10,2,16,0.00,7,Snow,305
2013-10-23,33,30,28,28,25,21,93,80,60,30.00,29.94,29.89,10,10,3,14,8,21,0.00,8,Snow,298
2013-10-24,37,32,28,30,27,25,93,78,60,30.18,30.10,30.01,10,10,3,12,7,18,0.00,7,Snow,294
2013-10-25,46,36,26,34,28,25,93,73,46,30.18,29.86,29.58,10,10,10,22,6,31,0.00,6,,230
2013-10-26,41,36,30,32,28,23,87,74,57,30.00,29.89,29.68,10,10,5,18,11,25,0.00,7,,303
2013-10-27,41,34,26,28,24,16,80,67,57,30.28,29.89,29.69,10,10,10,10,4,16,0.00,6,,304
2013-10-28,35,26,17,18,15,12,93,66,38,30.50,30.43,30.29,10,10,10,6,0,,0.00,1,,285
2013-10-29,39,26,12,23,17,9,93,72,39,30.43,30.26,30.10,10,10,10,7,1,,0.00,1,,200
2013-10-30,42,33,24,37,30,21,93,82,61,30.10,29.90,29.64,10,9,4,8,1,,0.00,8,,147
2013-10-31,39,38,37,37,36,36,100,93,87,29.63,29.45,29.35,10,6,0,7,1,,0.00,8,Fog,309